Photometre #744[NE_1.6] Ben_Salem AOT

File : 20190925_744.hum

25/09/2019,05:54:37,TEMP=23.0,BA=5.28,STAT.A=0.5,ExtBa=12.96
25/09/2019,05:57:46,TEMP=23.4,BA=5.28,STAT.A=0.5,ExtBa=12.86
25/09/2019,06:01:27,TEMP=23.5,BA=5.24,STAT.A=0.5,ExtBa=12.85
25/09/2019,06:05:50,TEMP=23.5,BA=5.24,STAT.A=0.5,ExtBa=12.86
25/09/2019,06:11:07,TEMP=23.6,BA=5.32,STAT.A=0.5,ExtBa=12.87
25/09/2019,06:17:36,TEMP=23.8,BA=5.32,STAT.A=0.5,ExtBa=12.88
25/09/2019,06:25:49,TEMP=23.9,BA=5.32,STAT.B=0.5,ExtBa=12.89
25/09/2019,06:29:44,TEMP=24.3,BA=5.32,STAT.A=0.5,ExtBa=12.86
25/09/2019,06:34:06,TEMP=24.4,BA=5.20,STAT.A=0.5,ExtBa=12.86
25/09/2019,06:39:02,TEMP=24.5,BA=5.20,STAT.A=0.5,ExtBa=12.87
25/09/2019,06:44:38,TEMP=24.7,BA=5.24,STAT.A=0.5,ExtBa=12.87
25/09/2019,06:51:03,TEMP=24.9,BA=5.40,STAT.C=0.5,ExtBa=12.88
25/09/2019,06:58:29,TEMP=25.1,BA=5.40,STAT.A=0.5,ExtBa=12.88
25/09/2019,07:07:12,TEMP=25.3,BA=5.24,STAT.A=0.5,ExtBa=12.89
25/09/2019,07:17:37,TEMP=25.5,BA=5.48,STAT.A=0.5,ExtBa=12.89
25/09/2019,07:30:19,TEMP=25.7,BA=5.56,STAT.A=0.5,ExtBa=12.90
25/09/2019,07:46:14,TEMP=26.0,BA=5.60,STAT.B=0.5,ExtBa=12.94
25/09/2019,07:57:43,TEMP=26.3,BA=5.60,STAT.D=0.5,ExtBa=13.00
25/09/2019,08:12:44,TEMP=27.1,BA=5.60,STAT.F,ExtBa=13.21
25/09/2019,08:27:43,TEMP=28.3,BA=5.60,STAT.D=0.5,ExtBa=13.43
25/09/2019,08:42:43,TEMP=28.9,BA=5.60,STAT.D=0.5,ExtBa=13.49
25/09/2019,08:57:43,TEMP=29.7,BA=5.60,STAT.D=0.5,ExtBa=13.46
25/09/2019,09:12:45,TEMP=29.9,BA=5.60,STAT.F,ExtBa=13.60
25/09/2019,09:27:44,TEMP=30.7,BA=5.60,STAT.D=0.5,ExtBa=13.54
25/09/2019,09:42:43,TEMP=30.8,BA=5.60,STAT.D=0.5,ExtBa=13.66
25/09/2019,09:57:44,TEMP=30.8,BA=5.60,STAT.D=0.5,ExtBa=13.63
25/09/2019,10:12:45,TEMP=31.4,BA=5.60,STAT.F,ExtBa=13.98
25/09/2019,10:27:44,TEMP=32.8,BA=5.40,STAT.D=0.5,ExtBa=13.31
25/09/2019,10:42:44,TEMP=33.4,BA=5.60,STAT.D=0.5,ExtBa=14.23
25/09/2019,10:57:44,TEMP=34.0,BA=5.60,STAT.D=0.5,ExtBa=14.26
25/09/2019,11:12:45,TEMP=34.2,BA=5.60,STAT.F,ExtBa=14.27
25/09/2019,11:27:44,TEMP=34.3,BA=5.60,STAT.D=0.5,ExtBa=14.26
25/09/2019,11:42:44,TEMP=35.1,BA=5.60,STAT.D=0.5,ExtBa=14.23
25/09/2019,11:57:44,TEMP=35.3,BA=5.56,STAT.D=0.5,ExtBa=14.21
25/09/2019,12:12:45,TEMP=35.7,BA=5.52,STAT.F,ExtBa=14.18
25/09/2019,12:27:44,TEMP=36.2,BA=5.48,STAT.D=0.5,ExtBa=14.15
25/09/2019,12:42:44,TEMP=36.5,BA=5.48,STAT.D=0.5,ExtBa=14.10
25/09/2019,12:57:43,TEMP=37.0,BA=5.48,STAT.D=0.5,ExtBa=14.07
25/09/2019,13:12:45,TEMP=36.9,BA=5.44,STAT.F,ExtBa=14.04
25/09/2019,13:27:43,TEMP=37.2,BA=5.36,STAT.D=0.5,ExtBa=13.50
25/09/2019,13:42:43,TEMP=38.2,BA=5.44,STAT.D=0.5,ExtBa=13.99
25/09/2019,13:57:43,TEMP=38.5,BA=5.40,STAT.D=0.5,ExtBa=13.94
25/09/2019,14:12:44,TEMP=38.5,BA=5.40,STAT.F,ExtBa=13.90
25/09/2019,14:27:43,TEMP=38.4,BA=5.32,STAT.D=0.5,ExtBa=13.19
25/09/2019,14:39:14,TEMP=37.8,BA=5.36,STAT.B=0.5,ExtBa=13.67
25/09/2019,14:55:09,TEMP=37.2,BA=5.36,STAT.A=0.5,ExtBa=13.48
25/09/2019,15:07:51,TEMP=37.5,BA=5.36,STAT.A=0.5,ExtBa=13.52
25/09/2019,15:18:16,TEMP=36.9,BA=5.36,STAT.A=0.5,ExtBa=13.50
25/09/2019,15:26:59,TEMP=36.6,BA=5.32,STAT.A=0.5,ExtBa=13.48
25/09/2019,15:34:25,TEMP=36.2,BA=5.36,STAT.C=0.5,ExtBa=13.41
25/09/2019,15:49:08,TEMP=35.9,BA=5.28,STAT.A=0.5,ExtBa=13.01
25/09/2019,15:51:03,TEMP=36.0,BA=5.28,STAT.A=0.5,ExtBa=13.02
25/09/2019,15:52:58,TEMP=36.0,BA=5.28,STAT.A=0.5,ExtBa=13.02
25/09/2019,15:55:43,TEMP=35.5,BA=5.28,STAT.A=0.5,ExtBa=13.04
25/09/2019,15:59:39,TEMP=35.2,BA=5.28,STAT.B=0.5,ExtBa=13.05
25/09/2019,16:09:19,TEMP=35.0,BA=5.28,STAT.A=0.5,ExtBa=12.95
25/09/2019,16:14:19,TEMP=34.2,BA=5.28,STAT.A=0.5,ExtBa=13.00
25/09/2019,16:23:04,TEMP=33.6,BA=5.28,STAT.A=0.5,ExtBa=13.01
25/09/2019,16:25:04,TEMP=34.1,BA=5.28,STAT.A=0.5,ExtBa=12.93
25/09/2019,16:27:40,TEMP=33.9,BA=5.28,STAT.A=0.5,ExtBa=12.95
25/09/2019,16:30:49,TEMP=33.7,BA=5.28,STAT.A=0.5,ExtBa=12.96